sensor_id;sensor_type;location;lat;lon;timestamp;pressure;altitude;pressure_sealevel;temperature;humidity
41862;BME280;27537;57.134;-2.136;2023-09-12T00:00:22;100715.94;;;13.86;100.00
41862;BME280;27537;57.134;-2.136;2023-09-12T00:02:50;100723.53;;;13.92;100.00
41862;BME280;27537;57.134;-2.136;2023-09-12T00:05:17;100728.47;;;13.81;100.00
41862;BME280;27537;57.134;-2.136;2023-09-12T00:07:44;100730.97;;;13.84;100.00
41862;BME280;27537;57.134;-2.136;2023-09-12T00:10:10;100721.69;;;13.77;100.00
41862;BME280;27537;57.134;-2.136;2023-09-12T00:12:37;100722.22;;;13.66;100.00
41862;BME280;27537;57.134;-2.136;2023-09-12T00:15:04;100737.69;;;13.72;100.00
41862;BME280;27537;57.134;-2.136;2023-09-12T00:17:31;100735.38;;;13.66;100.00
41862;BME280;27537;57.134;-2.136;2023-09-12T00:19:58;100742.78;;;13.58;100.00
41862;BME280;27537;57.134;-2.136;2023-09-12T00:22:24;100736.13;;;13.51;100.00
41862;BME280;27537;57.134;-2.136;2023-09-12T00:24:51;100738.06;;;13.47;100.00
41862;BME280;27537;57.134;-2.136;2023-09-12T00:27:18;100740.56;;;13.50;100.00
41862;BME280;27537;57.134;-2.136;2023-09-12T00:29:44;100737.38;;;13.61;100.00
41862;BME280;27537;57.134;-2.136;2023-09-12T00:32:11;100740.34;;;13.55;100.00
41862;BME280;27537;57.134;-2.136;2023-09-12T00:34:38;100748.53;;;13.48;100.00
41862;BME280;27537;57.134;-2.136;2023-09-12T00:37:04;100752.38;;;13.41;100.00
41862;BME280;27537;57.134;-2.136;2023-09-12T00:39:31;100751.47;;;13.42;100.00
41862;BME280;27537;57.134;-2.136;2023-09-12T00:41:58;100745.97;;;13.47;100.00
41862;BME280;27537;57.134;-2.136;2023-09-12T00:44:25;100750.53;;;13.43;100.00
41862;BME280;27537;57.134;-2.136;2023-09-12T00:46:53;100748.84;;;13.42;100.00
41862;BME280;27537;57.134;-2.136;2023-09-12T00:49:21;100762.06;;;13.41;100.00
41862;BME280;27537;57.134;-2.136;2023-09-12T00:51:50;100755.09;;;13.40;100.00
41862;BME280;27537;57.134;-2.136;2023-09-12T00:54:17;100754.09;;;13.23;100.00
41862;BME280;27537;57.134;-2.136;2023-09-12T00:56:44;100749.53;;;13.27;100.00
41862;BME280;27537;57.134;-2.136;2023-09-12T00:59:12;100755.47;;;13.32;100.00
41862;BME280;27537;57.134;-2.136;2023-09-12T01:01:39;100724.00;;;13.11;100.00
41862;BME280;27537;57.134;-2.136;2023-09-12T01:04:06;100750.84;;;13.18;100.00
41862;BME280;27537;57.134;-2.136;2023-09-12T01:06:45;100765.28;;;13.09;100.00
41862;BME280;27537;57.134;-2.136;2023-09-12T01:09:14;100765.78;;;13.18;100.00
41862;BME280;27537;57.134;-2.136;2023-09-12T01:11:41;100765.34;;;13.08;100.00
41862;BME280;27537;57.134;-2.136;2023-09-12T01:14:07;100754.19;;;13.03;100.00
41862;BME280;27537;57.134;-2.136;2023-09-12T01:16:34;100769.69;;;13.09;100.00
41862;BME280;27537;57.134;-2.136;2023-09-12T01:19:02;100765.09;;;12.95;100.00
41862;BME280;27537;57.134;-2.136;2023-09-12T01:27:27;100772.53;;;12.85;100.00
41862;BME280;27537;57.134;-2.136;2023-09-12T01:29:57;100777.31;;;12.77;100.00
41862;BME280;27537;57.134;-2.136;2023-09-12T01:32:25;100775.25;;;12.65;100.00
41862;BME280;27537;57.134;-2.136;2023-09-12T01:34:53;100765.28;;;12.52;100.00
41862;BME280;27537;57.134;-2.136;2023-09-12T01:37:19;100775.09;;;12.68;100.00
41862;BME280;27537;57.134;-2.136;2023-09-12T01:39:46;100788.63;;;12.59;100.00
41862;BME280;27537;57.134;-2.136;2023-09-12T01:42:16;100789.09;;;12.68;100.00
41862;BME280;27537;57.134;-2.136;2023-09-12T01:44:44;100787.38;;;12.67;100.00
41862;BME280;27537;57.134;-2.136;2023-09-12T01:47:13;100788.94;;;12.71;100.00
41862;BME280;27537;57.134;-2.136;2023-09-12T01:49:46;100790.16;;;12.64;100.00
41862;BME280;27537;57.134;-2.136;2023-09-12T01:52:14;100787.78;;;12.58;100.00
41862;BME280;27537;57.134;-2.136;2023-09-12T01:54:42;100780.63;;;12.62;100.00
41862;BME280;27537;57.134;-2.136;2023-09-12T01:57:09;100789.16;;;12.67;100.00
41862;BME280;27537;57.134;-2.136;2023-09-12T01:59:36;100790.50;;;12.76;100.00
41862;BME280;27537;57.134;-2.136;2023-09-12T02:02:03;100792.13;;;12.78;100.00
41862;BME280;27537;57.134;-2.136;2023-09-12T02:04:29;100794.16;;;12.73;100.00
41862;BME280;27537;57.134;-2.136;2023-09-12T02:06:56;100789.63;;;12.56;100.00
41862;BME280;27537;57.134;-2.136;2023-09-12T02:09:25;100797.03;;;12.67;100.00
41862;BME280;27537;57.134;-2.136;2023-09-12T02:11:51;100787.13;;;12.53;100.00
41862;BME280;27537;57.134;-2.136;2023-09-12T02:14:18;100800.56;;;12.66;100.00
41862;BME280;27537;57.134;-2.136;2023-09-12T02:16:44;100799.13;;;12.59;100.00
41862;BME280;27537;57.134;-2.136;2023-09-12T02:19:12;100800.91;;;12.58;100.00
41862;BME280;27537;57.134;-2.136;2023-09-12T02:21:38;100791.75;;;12.48;100.00
41862;BME280;27537;57.134;-2.136;2023-09-12T02:24:06;100804.16;;;12.44;100.00
41862;BME280;27537;57.134;-2.136;2023-09-12T02:26:32;100806.47;;;12.52;100.00
41862;BME280;27537;57.134;-2.136;2023-09-12T02:29:03;100810.19;;;12.46;100.00
41862;BME280;27537;57.134;-2.136;2023-09-12T02:31:32;100814.19;;;12.55;100.00
41862;BME280;27537;57.134;-2.136;2023-09-12T02:33:59;100811.38;;;12.60;100.00
41862;BME280;27537;57.134;-2.136;2023-09-12T02:36:25;100816.50;;;12.63;100.00
41862;BME280;27537;57.134;-2.136;2023-09-12T02:38:52;100815.63;;;12.62;100.00
41862;BME280;27537;57.134;-2.136;2023-09-12T02:41:19;100814.72;;;12.63;100.00
41862;BME280;27537;57.134;-2.136;2023-09-12T02:43:46;100798.72;;;12.49;100.00
41862;BME280;27537;57.134;-2.136;2023-09-12T02:46:12;100812.63;;;12.51;100.00
41862;BME280;27537;57.134;-2.136;2023-09-12T02:48:39;100818.00;;;12.48;100.00
41862;BME280;27537;57.134;-2.136;2023-09-12T02:51:06;100814.59;;;12.46;100.00
41862;BME280;27537;57.134;-2.136;2023-09-12T02:53:33;100817.34;;;12.43;100.00
41862;BME280;27537;57.134;-2.136;2023-09-12T02:56:00;100819.97;;;12.43;100.00
41862;BME280;27537;57.134;-2.136;2023-09-12T02:58:26;100827.13;;;12.39;100.00
41862;BME280;27537;57.134;-2.136;2023-09-12T03:00:53;100817.03;;;12.30;100.00
41862;BME280;27537;57.134;-2.136;2023-09-12T03:03:21;100821.31;;;12.32;100.00
41862;BME280;27537;57.134;-2.136;2023-09-12T03:06:00;100828.66;;;12.24;100.00
41862;BME280;27537;57.134;-2.136;2023-09-12T03:08:27;100839.63;;;12.34;100.00
41862;BME280;27537;57.134;-2.136;2023-09-12T03:10:55;100843.28;;;12.30;100.00
41862;BME280;27537;57.134;-2.136;2023-09-12T03:13:24;100837.31;;;12.26;100.00
41862;BME280;27537;57.134;-2.136;2023-09-12T03:15:52;100839.41;;;12.18;100.00
41862;BME280;27537;57.134;-2.136;2023-09-12T03:18:18;100835.34;;;12.11;100.00
41862;BME280;27537;57.134;-2.136;2023-09-12T03:20:45;100832.72;;;12.11;100.00
41862;BME280;27537;57.134;-2.136;2023-09-12T03:23:12;100841.25;;;11.95;100.00
41862;BME280;27537;57.134;-2.136;2023-09-12T03:25:39;100840.47;;;11.93;100.00
41862;BME280;27537;57.134;-2.136;2023-09-12T03:28:06;100841.59;;;11.86;100.00
41862;BME280;27537;57.134;-2.136;2023-09-12T03:30:34;100842.91;;;11.76;100.00
41862;BME280;27537;57.134;-2.136;2023-09-12T03:33:02;100831.06;;;11.66;100.00
41862;BME280;27537;57.134;-2.136;2023-09-12T03:35:29;100841.25;;;11.73;100.00
41862;BME280;27537;57.134;-2.136;2023-09-12T03:37:56;100837.84;;;11.71;100.00
41862;BME280;27537;57.134;-2.136;2023-09-12T03:40:23;100851.28;;;11.84;100.00
41862;BME280;27537;57.134;-2.136;2023-09-12T03:42:49;100852.22;;;11.83;100.00
41862;BME280;27537;57.134;-2.136;2023-09-12T03:45:16;100852.38;;;11.58;100.00
41862;BME280;27537;57.134;-2.136;2023-09-12T03:47:43;100857.34;;;11.64;100.00
41862;BME280;27537;57.134;-2.136;2023-09-12T03:50:13;100843.22;;;11.46;100.00
41862;BME280;27537;57.134;-2.136;2023-09-12T03:52:43;100825.50;;;11.29;100.00
41862;BME280;27537;57.134;-2.136;2023-09-12T03:55:09;100856.38;;;11.45;100.00
41862;BME280;27537;57.134;-2.136;2023-09-12T03:57:37;100839.25;;;11.36;100.00
41862;BME280;27537;57.134;-2.136;2023-09-12T04:00:04;100836.88;;;11.52;100.00
41862;BME280;27537;57.134;-2.136;2023-09-12T04:02:32;100856.91;;;11.75;100.00
41862;BME280;27537;57.134;-2.136;2023-09-12T04:04:59;100862.94;;;11.77;100.00
41862;BME280;27537;57.134;-2.136;2023-09-12T04:07:26;100870.09;;;11.51;100.00
41862;BME280;27537;57.134;-2.136;2023-09-12T04:09:53;100872.75;;;11.28;100.00
41862;BME280;27537;57.134;-2.136;2023-09-12T04:12:19;100875.97;;;11.12;100.00
41862;BME280;27537;57.134;-2.136;2023-09-12T04:14:49;100882.91;;;11.13;100.00
41862;BME280;27537;57.134;-2.136;2023-09-12T04:17:17;100873.78;;;11.24;100.00
41862;BME280;27537;57.134;-2.136;2023-09-12T04:19:44;100869.19;;;11.30;100.00
41862;BME280;27537;57.134;-2.136;2023-09-12T04:22:10;100872.47;;;11.35;100.00
41862;BME280;27537;57.134;-2.136;2023-09-12T04:24:37;100869.59;;;11.42;100.00
41862;BME280;27537;57.134;-2.136;2023-09-12T04:27:04;100873.25;;;11.37;100.00
41862;BME280;27537;57.134;-2.136;2023-09-12T04:29:35;100869.75;;;11.38;100.00
41862;BME280;27537;57.134;-2.136;2023-09-12T04:32:03;100862.09;;;11.32;100.00
41862;BME280;27537;57.134;-2.136;2023-09-12T04:34:30;100844.78;;;11.28;100.00
41862;BME280;27537;57.134;-2.136;2023-09-12T04:36:57;100863.50;;;11.41;100.00
41862;BME280;27537;57.134;-2.136;2023-09-12T04:39:24;100863.94;;;11.30;100.00
41862;BME280;27537;57.134;-2.136;2023-09-12T04:41:51;100865.28;;;11.40;100.00
41862;BME280;27537;57.134;-2.136;2023-09-12T04:44:17;100860.16;;;11.37;100.00
41862;BME280;27537;57.134;-2.136;2023-09-12T04:46:44;100873.75;;;11.47;100.00
41862;BME280;27537;57.134;-2.136;2023-09-12T04:49:11;100871.44;;;11.39;100.00
41862;BME280;27537;57.134;-2.136;2023-09-12T04:51:38;100864.84;;;11.29;100.00
41862;BME280;27537;57.134;-2.136;2023-09-12T04:54:05;100863.56;;;11.17;100.00
41862;BME280;27537;57.134;-2.136;2023-09-12T04:56:32;100851.50;;;11.12;100.00
41862;BME280;27537;57.134;-2.136;2023-09-12T04:58:59;100881.38;;;11.08;100.00
41862;BME280;27537;57.134;-2.136;2023-09-12T05:01:25;100888.09;;;11.15;100.00
41862;BME280;27537;57.134;-2.136;2023-09-12T05:03:52;100890.44;;;11.23;100.00
41862;BME280;27537;57.134;-2.136;2023-09-12T05:06:19;100884.75;;;11.11;100.00
41862;BME280;27537;57.134;-2.136;2023-09-12T05:08:46;100873.41;;;11.11;100.00
41862;BME280;27537;57.134;-2.136;2023-09-12T05:11:13;100889.47;;;11.25;100.00
41862;BME280;27537;57.134;-2.136;2023-09-12T05:13:39;100881.94;;;11.16;100.00
41862;BME280;27537;57.134;-2.136;2023-09-12T05:16:06;100890.81;;;11.12;100.00
41862;BME280;27537;57.134;-2.136;2023-09-12T05:18:33;100889.19;;;11.09;100.00
41862;BME280;27537;57.134;-2.136;2023-09-12T05:20:59;100892.53;;;11.13;100.00
41862;BME280;27537;57.134;-2.136;2023-09-12T05:23:26;100894.59;;;11.05;100.00
41862;BME280;27537;57.134;-2.136;2023-09-12T05:25:53;100901.66;;;11.02;100.00
41862;BME280;27537;57.134;-2.136;2023-09-12T05:28:20;100899.63;;;11.11;100.00
41862;BME280;27537;57.134;-2.136;2023-09-12T05:30:46;100901.94;;;11.18;100.00
41862;BME280;27537;57.134;-2.136;2023-09-12T05:33:16;100891.50;;;10.93;100.00
41862;BME280;27537;57.134;-2.136;2023-09-12T05:35:43;100907.69;;;11.05;100.00
41862;BME280;27537;57.134;-2.136;2023-09-12T05:38:13;100905.47;;;10.94;100.00
41862;BME280;27537;57.134;-2.136;2023-09-12T05:40:39;100903.06;;;10.88;100.00
41862;BME280;27537;57.134;-2.136;2023-09-12T05:43:06;100911.63;;;10.93;100.00
41862;BME280;27537;57.134;-2.136;2023-09-12T05:45:33;100923.09;;;10.89;100.00
41862;BME280;27537;57.134;-2.136;2023-09-12T05:48:00;100914.94;;;10.98;100.00
41862;BME280;27537;57.134;-2.136;2023-09-12T05:50:27;100917.03;;;11.12;100.00
41862;BME280;27537;57.134;-2.136;2023-09-12T05:52:53;100927.59;;;11.10;100.00
41862;BME280;27537;57.134;-2.136;2023-09-12T05:55:20;100912.19;;;11.01;100.00
41862;BME280;27537;57.134;-2.136;2023-09-12T05:57:48;100928.03;;;10.98;100.00
41862;BME280;27537;57.134;-2.136;2023-09-12T06:00:19;100931.84;;;11.13;100.00
41862;BME280;27537;57.134;-2.136;2023-09-12T06:02:47;100932.09;;;11.07;100.00
41862;BME280;27537;57.134;-2.136;2023-09-12T06:05:15;100939.06;;;11.06;100.00
41862;BME280;27537;57.134;-2.136;2023-09-12T06:07:42;100926.03;;;11.05;100.00
41862;BME280;27537;57.134;-2.136;2023-09-12T06:10:09;100957.03;;;11.17;100.00
41862;BME280;27537;57.134;-2.136;2023-09-12T06:12:36;100930.16;;;10.87;100.00
41862;BME280;27537;57.134;-2.136;2023-09-12T06:15:03;100965.06;;;11.12;100.00
41862;BME280;27537;57.134;-2.136;2023-09-12T06:17:31;100956.56;;;11.29;100.00
41862;BME280;27537;57.134;-2.136;2023-09-12T06:19:58;100961.31;;;11.19;100.00
41862;BME280;27537;57.134;-2.136;2023-09-12T06:22:25;100958.34;;;11.29;100.00
41862;BME280;27537;57.134;-2.136;2023-09-12T06:24:52;100955.88;;;11.24;100.00
41862;BME280;27537;57.134;-2.136;2023-09-12T06:27:19;100949.97;;;11.43;100.00
41862;BME280;27537;57.134;-2.136;2023-09-12T06:29:47;100958.47;;;11.49;100.00
41862;BME280;27537;57.134;-2.136;2023-09-12T06:32:15;100961.16;;;11.48;100.00
41862;BME280;27537;57.134;-2.136;2023-09-12T06:34:42;100967.81;;;11.56;100.00
41862;BME280;27537;57.134;-2.136;2023-09-12T06:37:10;100963.25;;;11.62;100.00
41862;BME280;27537;57.134;-2.136;2023-09-12T06:39:37;100969.16;;;11.67;100.00
41862;BME280;27537;57.134;-2.136;2023-09-12T06:42:05;100965.31;;;11.75;100.00
41862;BME280;27537;57.134;-2.136;2023-09-12T06:44:31;100958.31;;;11.76;100.00
41862;BME280;27537;57.134;-2.136;2023-09-12T06:46:58;100981.69;;;11.82;100.00
41862;BME280;27537;57.134;-2.136;2023-09-12T06:49:25;100978.88;;;11.87;100.00
41862;BME280;27537;57.134;-2.136;2023-09-12T06:51:51;100972.13;;;11.81;100.00
41862;BME280;27537;57.134;-2.136;2023-09-12T06:54:18;100976.91;;;11.93;100.00
41862;BME280;27537;57.134;-2.136;2023-09-12T06:56:44;100983.72;;;12.20;100.00
41862;BME280;27537;57.134;-2.136;2023-09-12T06:59:14;100983.56;;;12.87;100.00
41862;BME280;27537;57.134;-2.136;2023-09-12T07:01:40;100988.81;;;13.27;100.00
41862;BME280;27537;57.134;-2.136;2023-09-12T07:04:07;100995.84;;;13.47;100.00
41862;BME280;27537;57.134;-2.136;2023-09-12T07:06:34;100998.75;;;13.79;100.00
41862;BME280;27537;57.134;-2.136;2023-09-12T07:09:01;101009.53;;;13.74;100.00
41862;BME280;27537;57.134;-2.136;2023-09-12T07:11:28;100997.75;;;14.73;100.00
41862;BME280;27537;57.134;-2.136;2023-09-12T07:13:55;101008.03;;;14.24;100.00
41862;BME280;27537;57.134;-2.136;2023-09-12T07:16:22;101001.59;;;14.84;100.00
41862;BME280;27537;57.134;-2.136;2023-09-12T07:18:48;101010.03;;;15.08;100.00
41862;BME280;27537;57.134;-2.136;2023-09-12T07:21:17;101015.19;;;15.27;100.00
41862;BME280;27537;57.134;-2.136;2023-09-12T07:23:44;101016.94;;;15.10;100.00
41862;BME280;27537;57.134;-2.136;2023-09-12T07:26:14;101014.88;;;15.82;100.00
41862;BME280;27537;57.134;-2.136;2023-09-12T07:28:41;101021.94;;;16.13;100.00
41862;BME280;27537;57.134;-2.136;2023-09-12T07:31:08;101027.47;;;15.77;100.00
41862;BME280;27537;57.134;-2.136;2023-09-12T07:33:35;101027.41;;;16.10;100.00
41862;BME280;27537;57.134;-2.136;2023-09-12T07:36:02;101033.91;;;15.71;100.00
41862;BME280;27537;57.134;-2.136;2023-09-12T07:38:31;101037.63;;;15.51;100.00
41862;BME280;27537;57.134;-2.136;2023-09-12T07:40:58;101043.31;;;15.44;100.00
41862;BME280;27537;57.134;-2.136;2023-09-12T07:43:26;101047.50;;;14.97;100.00
41862;BME280;27537;57.134;-2.136;2023-09-12T07:45:56;101039.94;;;15.07;100.00
41862;BME280;27537;57.134;-2.136;2023-09-12T07:48:24;101054.81;;;15.43;100.00
41862;BME280;27537;57.134;-2.136;2023-09-12T07:50:51;101055.34;;;15.99;100.00
41862;BME280;27537;57.134;-2.136;2023-09-12T07:53:18;101046.91;;;15.92;100.00
41862;BME280;27537;57.134;-2.136;2023-09-12T07:55:45;101052.19;;;15.92;100.00
41862;BME280;27537;57.134;-2.136;2023-09-12T07:58:13;101047.25;;;16.18;100.00
41862;BME280;27537;57.134;-2.136;2023-09-12T08:00:40;101063.91;;;16.50;100.00
41862;BME280;27537;57.134;-2.136;2023-09-12T08:03:07;101072.75;;;16.65;100.00
41862;BME280;27537;57.134;-2.136;2023-09-12T08:05:34;101060.88;;;16.72;100.00
41862;BME280;27537;57.134;-2.136;2023-09-12T08:08:01;101073.56;;;16.81;100.00
41862;BME280;27537;57.134;-2.136;2023-09-12T08:10:28;101080.09;;;16.60;100.00
41862;BME280;27537;57.134;-2.136;2023-09-12T08:12:55;101085.91;;;16.66;100.00
41862;BME280;27537;57.134;-2.136;2023-09-12T08:15:22;101085.94;;;16.81;100.00
41862;BME280;27537;57.134;-2.136;2023-09-12T08:17:49;101080.34;;;17.01;100.00
41862;BME280;27537;57.134;-2.136;2023-09-12T08:20:20;101089.53;;;17.10;100.00
41862;BME280;27537;57.134;-2.136;2023-09-12T08:22:47;101081.22;;;17.02;100.00
41862;BME280;27537;57.134;-2.136;2023-09-12T08:25:14;101080.47;;;16.38;100.00
41862;BME280;27537;57.134;-2.136;2023-09-12T08:27:41;101081.28;;;16.86;100.00
41862;BME280;27537;57.134;-2.136;2023-09-12T08:30:12;101077.66;;;16.87;100.00
41862;BME280;27537;57.134;-2.136;2023-09-12T08:32:40;101093.88;;;16.97;100.00
41862;BME280;27537;57.134;-2.136;2023-09-12T08:35:11;101097.31;;;17.13;100.00
41862;BME280;27537;57.134;-2.136;2023-09-12T08:37:42;101095.19;;;16.74;100.00
41862;BME280;27537;57.134;-2.136;2023-09-12T08:40:10;101095.75;;;16.48;100.00
41862;BME280;27537;57.134;-2.136;2023-09-12T08:42:40;101101.97;;;16.94;100.00
41862;BME280;27537;57.134;-2.136;2023-09-12T08:45:13;101097.50;;;17.24;100.00
41862;BME280;27537;57.134;-2.136;2023-09-12T08:47:45;101104.75;;;17.06;100.00
41862;BME280;27537;57.134;-2.136;2023-09-12T08:50:14;101107.72;;;16.86;100.00
41862;BME280;27537;57.134;-2.136;2023-09-12T08:52:43;101116.44;;;17.47;100.00
41862;BME280;27537;57.134;-2.136;2023-09-12T08:55:30;101100.38;;;17.50;100.00
41862;BME280;27537;57.134;-2.136;2023-09-12T08:58:00;101116.88;;;17.11;100.00
41862;BME280;27537;57.134;-2.136;2023-09-12T09:00:29;101115.19;;;16.78;100.00
41862;BME280;27537;57.134;-2.136;2023-09-12T09:02:57;101115.31;;;16.60;100.00
41862;BME280;27537;57.134;-2.136;2023-09-12T09:05:24;101108.16;;;16.62;100.00
41862;BME280;27537;57.134;-2.136;2023-09-12T09:07:51;101128.88;;;16.86;100.00
41862;BME280;27537;57.134;-2.136;2023-09-12T09:10:21;101121.25;;;17.40;100.00
41862;BME280;27537;57.134;-2.136;2023-09-12T09:13:08;101140.19;;;17.04;100.00
41862;BME280;27537;57.134;-2.136;2023-09-12T09:15:37;101126.25;;;16.86;100.00
41862;BME280;27537;57.134;-2.136;2023-09-12T09:18:09;101133.00;;;17.06;100.00
41862;BME280;27537;57.134;-2.136;2023-09-12T09:20:38;101134.38;;;16.97;100.00
41862;BME280;27537;57.134;-2.136;2023-09-12T09:23:07;101132.59;;;16.82;100.00
41862;BME280;27537;57.134;-2.136;2023-09-12T09:25:40;101133.03;;;16.90;100.00
41862;BME280;27537;57.134;-2.136;2023-09-12T09:28:16;101131.56;;;17.00;100.00
41862;BME280;27537;57.134;-2.136;2023-09-12T09:30:46;101138.16;;;16.77;100.00
41862;BME280;27537;57.134;-2.136;2023-09-12T09:33:14;101138.25;;;16.76;100.00
41862;BME280;27537;57.134;-2.136;2023-09-12T09:35:41;101138.44;;;16.57;100.00
41862;BME280;27537;57.134;-2.136;2023-09-12T09:38:08;101151.53;;;17.06;100.00
41862;BME280;27537;57.134;-2.136;2023-09-12T09:40:35;101134.06;;;16.72;100.00
41862;BME280;27537;57.134;-2.136;2023-09-12T09:43:03;101147.31;;;16.87;100.00
41862;BME280;27537;57.134;-2.136;2023-09-12T09:45:30;101144.38;;;16.76;100.00
41862;BME280;27537;57.134;-2.136;2023-09-12T09:48:07;101134.38;;;16.97;100.00
41862;BME280;27537;57.134;-2.136;2023-09-12T09:50:34;101140.22;;;17.18;100.00
41862;BME280;27537;57.134;-2.136;2023-09-12T09:53:04;101141.44;;;17.13;100.00
41862;BME280;27537;57.134;-2.136;2023-09-12T09:55:34;101145.66;;;16.69;100.00
41862;BME280;27537;57.134;-2.136;2023-09-12T09:58:07;101166.81;;;16.37;100.00
41862;BME280;27537;57.134;-2.136;2023-09-12T10:00:37;101160.13;;;15.98;100.00
41862;BME280;27537;57.134;-2.136;2023-09-12T10:03:04;101155.56;;;16.49;100.00
41862;BME280;27537;57.134;-2.136;2023-09-12T10:05:37;101169.78;;;16.15;100.00
41862;BME280;27537;57.134;-2.136;2023-09-12T10:08:09;101161.25;;;16.10;100.00
41862;BME280;27537;57.134;-2.136;2023-09-12T10:10:38;101159.16;;;16.80;100.00
41862;BME280;27537;57.134;-2.136;2023-09-12T10:13:05;101156.09;;;16.88;100.00
41862;BME280;27537;57.134;-2.136;2023-09-12T10:15:34;101158.91;;;16.85;100.00
41862;BME280;27537;57.134;-2.136;2023-09-12T10:18:08;101166.38;;;16.93;100.00
41862;BME280;27537;57.134;-2.136;2023-09-12T10:20:44;101167.25;;;16.61;100.00
41862;BME280;27537;57.134;-2.136;2023-09-12T10:23:15;101163.47;;;16.81;100.00
41862;BME280;27537;57.134;-2.136;2023-09-12T10:25:47;101155.63;;;16.96;100.00
41862;BME280;27537;57.134;-2.136;2023-09-12T10:28:16;101172.84;;;17.33;100.00
41862;BME280;27537;57.134;-2.136;2023-09-12T10:30:44;101170.22;;;16.87;100.00
41862;BME280;27537;57.134;-2.136;2023-09-12T10:33:13;101182.34;;;17.07;100.00
41862;BME280;27537;57.134;-2.136;2023-09-12T10:35:41;101183.63;;;17.00;100.00
41862;BME280;27537;57.134;-2.136;2023-09-12T10:38:08;101178.41;;;16.82;100.00
41862;BME280;27537;57.134;-2.136;2023-09-12T10:40:36;101181.00;;;17.00;100.00
41862;BME280;27537;57.134;-2.136;2023-09-12T10:43:10;101185.69;;;16.95;100.00
41862;BME280;27537;57.134;-2.136;2023-09-12T10:45:39;101182.47;;;17.20;100.00
41862;BME280;27537;57.134;-2.136;2023-09-12T10:48:09;101180.84;;;17.17;100.00
41862;BME280;27537;57.134;-2.136;2023-09-12T10:50:37;101184.75;;;17.26;100.00
41862;BME280;27537;57.134;-2.136;2023-09-12T10:53:13;101181.38;;;17.38;100.00
41862;BME280;27537;57.134;-2.136;2023-09-12T10:55:41;101191.41;;;17.78;100.00
41862;BME280;27537;57.134;-2.136;2023-09-12T10:58:09;101204.91;;;17.73;100.00
41862;BME280;27537;57.134;-2.136;2023-09-12T11:00:39;101201.59;;;17.70;100.00
41862;BME280;27537;57.134;-2.136;2023-09-12T11:05:56;101217.47;;;17.70;100.00
41862;BME280;27537;57.134;-2.136;2023-09-12T11:08:22;101210.41;;;17.40;100.00
41862;BME280;27537;57.134;-2.136;2023-09-12T11:11:19;101228.50;;;17.48;100.00
41862;BME280;27537;57.134;-2.136;2023-09-12T11:14:02;101227.47;;;17.50;100.00
41862;BME280;27537;57.134;-2.136;2023-09-12T11:16:29;101226.16;;;17.57;100.00
41862;BME280;27537;57.134;-2.136;2023-09-12T11:19:16;101228.50;;;17.48;100.00
41862;BME280;27537;57.134;-2.136;2023-09-12T11:21:50;101240.03;;;17.46;100.00
41862;BME280;27537;57.134;-2.136;2023-09-12T11:24:18;101224.00;;;17.34;100.00
41862;BME280;27537;57.134;-2.136;2023-09-12T11:26:59;101224.88;;;17.18;100.00
41862;BME280;27537;57.134;-2.136;2023-09-12T11:29:33;101227.97;;;16.79;100.00
41862;BME280;27537;57.134;-2.136;2023-09-12T11:32:02;101235.16;;;16.93;100.00
41862;BME280;27537;57.134;-2.136;2023-09-12T11:34:38;101227.50;;;16.88;100.00
41862;BME280;27537;57.134;-2.136;2023-09-12T11:37:07;101221.06;;;17.08;100.00
41862;BME280;27537;57.134;-2.136;2023-09-12T11:39:36;101225.06;;;17.15;100.00
41862;BME280;27537;57.134;-2.136;2023-09-12T11:42:10;101228.81;;;17.27;100.00
41862;BME280;27537;57.134;-2.136;2023-09-12T11:44:38;101222.47;;;17.30;100.00
41862;BME280;27537;57.134;-2.136;2023-09-12T11:47:05;101215.69;;;17.40;100.00
41862;BME280;27537;57.134;-2.136;2023-09-12T11:49:41;101222.84;;;17.54;100.00
41862;BME280;27537;57.134;-2.136;2023-09-12T11:52:10;101227.09;;;17.87;100.00
41862;BME280;27537;57.134;-2.136;2023-09-12T11:54:37;101232.13;;;17.61;100.00
41862;BME280;27537;57.134;-2.136;2023-09-12T11:57:04;101220.47;;;17.94;100.00
41862;BME280;27537;57.134;-2.136;2023-09-12T11:59:31;101242.78;;;17.90;100.00
41862;BME280;27537;57.134;-2.136;2023-09-12T12:01:58;101239.69;;;17.37;100.00
41862;BME280;27537;57.134;-2.136;2023-09-12T12:04:25;101236.56;;;17.30;100.00
41862;BME280;27537;57.134;-2.136;2023-09-12T12:06:54;101229.34;;;17.18;100.00
41862;BME280;27537;57.134;-2.136;2023-09-12T12:09:22;101236.31;;;17.19;100.00
41862;BME280;27537;57.134;-2.136;2023-09-12T12:11:49;101237.84;;;17.39;100.00
41862;BME280;27537;57.134;-2.136;2023-09-12T12:14:17;101247.09;;;17.76;100.00
41862;BME280;27537;57.134;-2.136;2023-09-12T12:16:46;101249.97;;;17.57;100.00
41862;BME280;27537;57.134;-2.136;2023-09-12T12:19:13;101239.78;;;17.65;100.00
41862;BME280;27537;57.134;-2.136;2023-09-12T12:21:41;101244.81;;;17.70;100.00
41862;BME280;27537;57.134;-2.136;2023-09-12T12:24:13;101236.78;;;17.72;100.00
41862;BME280;27537;57.134;-2.136;2023-09-12T12:26:43;101242.38;;;17.81;100.00
41862;BME280;27537;57.134;-2.136;2023-09-12T12:29:12;101256.16;;;17.42;100.00
41862;BME280;27537;57.134;-2.136;2023-09-12T12:31:40;101251.13;;;16.91;100.00
41862;BME280;27537;57.134;-2.136;2023-09-12T12:34:07;101246.47;;;16.47;100.00
41862;BME280;27537;57.134;-2.136;2023-09-12T12:36:41;101262.19;;;16.98;100.00
41862;BME280;27537;57.134;-2.136;2023-09-12T12:39:22;101252.88;;;17.06;100.00
41862;BME280;27537;57.134;-2.136;2023-09-12T12:41:52;101242.53;;;16.87;100.00
41862;BME280;27537;57.134;-2.136;2023-09-12T12:44:19;101251.84;;;17.25;100.00